createdAt,value
2023-01-25T00:00:30.644Z,99580.31
2023-01-25T00:02:57.691Z,99568.41
2023-01-25T00:05:24.668Z,99571.91
2023-01-25T00:07:51.295Z,99561.78
2023-01-25T00:10:18.350Z,99562.59
2023-01-25T00:12:45.087Z,99565.91
2023-01-25T00:15:12.118Z,99552.47
2023-01-25T00:17:38.808Z,99528.94
2023-01-25T00:20:06.144Z,99544.09
2023-01-25T00:22:32.763Z,99544.84
2023-01-25T00:24:59.531Z,99550.81
2023-01-25T00:27:26.474Z,99544.97
2023-01-25T00:29:54.310Z,99540.66
2023-01-25T00:32:20.995Z,99535.50
2023-01-25T00:34:49.814Z,99537.91
2023-01-25T00:37:24.311Z,99515.19
2023-01-25T00:39:51.712Z,99511.13
2023-01-25T00:42:19.825Z,99535.38
2023-01-25T00:44:47.804Z,99535.41
2023-01-25T00:47:15.513Z,99553.19
2023-01-25T00:49:44.027Z,99547.97
2023-01-25T00:52:11.790Z,99561.66
2023-01-25T00:54:38.893Z,99549.88
2023-01-25T00:57:05.846Z,99549.75
2023-01-25T00:59:34.337Z,99541.31
2023-01-25T01:02:02.111Z,99556.50
2023-01-25T01:04:29.225Z,99548.16
2023-01-25T01:06:56.350Z,99551.75
2023-01-25T01:09:24.106Z,99544.84
2023-01-25T01:11:53.104Z,99539.75
2023-01-25T01:14:20.779Z,99547.44
2023-01-25T01:16:47.954Z,99540.53
2023-01-25T01:19:14.891Z,99537.06
2023-01-25T01:21:41.865Z,99548.19
2023-01-25T01:24:10.605Z,99549.97
2023-01-25T01:26:37.527Z,99557.50
2023-01-25T01:29:04.725Z,99553.19
2023-01-25T01:31:31.671Z,99556.56
2023-01-25T01:34:20.118Z,99538.81
2023-01-25T01:36:47.151Z,99522.78
2023-01-25T01:39:13.976Z,99502.66
2023-01-25T01:41:40.827Z,99530.50
2023-01-25T01:44:17.070Z,99524.59
2023-01-25T01:46:55.121Z,99520.47
2023-01-25T01:49:27.871Z,99519.75
2023-01-25T01:52:22.991Z,99534.88
2023-01-25T01:54:57.043Z,99533.09
2023-01-25T01:57:31.329Z,99478.94
2023-01-25T02:00:24.852Z,99510.84
2023-01-25T02:02:52.097Z,99528.84
2023-01-25T02:05:40.846Z,99518.69
2023-01-25T02:08:12.329Z,99525.56
2023-01-25T02:10:40.998Z,99529.75
2023-01-25T02:13:08.167Z,99513.88
2023-01-25T02:15:44.678Z,99503.75
2023-01-25T02:18:12.490Z,99520.63
2023-01-25T02:20:43.188Z,99532.53
2023-01-25T02:23:41.113Z,99528.91
2023-01-25T02:26:10.120Z,99529.75
2023-01-25T02:28:43.292Z,99524.84
2023-01-25T02:31:10.228Z,99516.38
2023-01-25T02:33:37.036Z,99514.66
2023-01-25T02:36:07.375Z,99512.91
2023-01-25T02:38:45.399Z,99489.47
2023-01-25T02:41:27.198Z,99508.16
2023-01-25T02:43:54.676Z,99501.34
2023-01-25T02:46:29.147Z,99501.38
2023-01-25T02:48:58.033Z,99509.00
2023-01-25T02:51:27.190Z,99510.72
2023-01-25T02:53:55.882Z,99508.88
2023-01-25T02:56:23.053Z,99518.97
2023-01-25T02:58:50.153Z,99523.38
2023-01-25T03:01:18.400Z,99520.13
2023-01-25T03:03:45.092Z,99501.47
2023-01-25T03:06:11.886Z,99513.13
2023-01-25T03:08:42.467Z,99507.28
2023-01-25T03:11:09.374Z,99514.91
2023-01-25T03:13:38.700Z,99511.56
2023-01-25T03:16:09.550Z,99486.25
2023-01-25T03:18:39.237Z,99508.78
2023-01-25T03:21:13.420Z,99512.22
2023-01-25T03:23:41.300Z,99519.91
2023-01-25T03:26:15.759Z,99525.00
2023-01-25T03:28:58.406Z,99508.88
2023-01-25T03:31:25.272Z,99500.63
2023-01-25T03:33:52.389Z,99512.22
2023-01-25T03:36:23.675Z,99522.34
2023-01-25T03:38:50.500Z,99514.81
2023-01-25T03:41:17.878Z,99523.31
2023-01-25T03:43:46.014Z,99497.13
2023-01-25T03:46:16.640Z,99508.13
2023-01-25T03:48:43.611Z,99518.25
2023-01-25T03:51:11.025Z,99521.59
2023-01-25T03:53:37.763Z,99524.28
2023-01-25T03:56:17.531Z,99515.88
2023-01-25T03:58:50.913Z,99513.28
2023-01-25T04:01:18.256Z,99516.56
2023-01-25T04:03:45.028Z,99492.88
2023-01-25T04:06:11.821Z,99488.50
2023-01-25T04:08:39.367Z,99483.56
2023-01-25T04:11:09.388Z,99497.91
2023-01-25T04:13:37.628Z,99498.06
2023-01-25T04:16:09.591Z,99474.56
2023-01-25T04:19:02.511Z,99500.75
2023-01-25T04:21:31.198Z,99500.88
2023-01-25T04:23:58.336Z,99503.47
2023-01-25T04:26:25.298Z,99504.25
2023-01-25T04:28:56.252Z,99500.00
2023-01-25T04:31:23.194Z,99504.22
2023-01-25T04:33:51.267Z,99504.22
2023-01-25T04:36:19.613Z,99495.47
2023-01-25T04:38:46.257Z,99481.03
2023-01-25T04:41:13.204Z,99477.63
2023-01-25T04:43:41.225Z,99486.31
2023-01-25T04:46:10.153Z,99496.50
2023-01-25T04:48:36.956Z,99483.84
2023-01-25T04:51:06.588Z,99489.78
2023-01-25T04:53:37.559Z,99475.47
2023-01-25T04:56:06.898Z,99476.13
2023-01-25T04:58:42.159Z,99475.25
2023-01-25T05:01:09.145Z,99459.28
2023-01-25T05:03:35.914Z,99479.53
2023-01-25T05:06:04.297Z,99484.66
2023-01-25T05:08:30.950Z,99477.91
2023-01-25T05:11:00.945Z,99471.09
2023-01-25T05:13:51.994Z,99486.44
2023-01-25T05:16:24.758Z,99467.00
2023-01-25T05:18:51.720Z,99474.47
2023-01-25T05:21:42.026Z,99469.47
2023-01-25T05:24:10.071Z,99463.63
2023-01-25T05:26:56.162Z,99456.78
2023-01-25T05:29:23.054Z,99430.97
2023-01-25T05:32:19.947Z,99452.06
2023-01-25T05:34:48.116Z,99458.03
2023-01-25T05:37:18.118Z,99460.66
2023-01-25T05:39:47.229Z,99448.72
2023-01-25T05:42:16.582Z,99447.19
2023-01-25T05:44:46.281Z,99438.75
2023-01-25T05:47:16.861Z,99437.88
2023-01-25T05:49:44.442Z,99448.94
2023-01-25T05:52:17.991Z,99452.94
2023-01-25T05:54:45.376Z,99419.44
2023-01-25T05:57:15.169Z,99444.75
2023-01-25T05:59:42.793Z,99450.59
2023-01-25T06:02:12.030Z,99448.09
2023-01-25T06:04:39.822Z,99439.78
2023-01-25T06:07:07.299Z,99441.41
2023-01-25T06:09:35.958Z,99437.16
2023-01-25T06:12:04.041Z,99446.47
2023-01-25T06:14:30.874Z,99439.81
2023-01-25T06:16:59.143Z,99445.88
2023-01-25T06:19:31.596Z,99428.97
2023-01-25T06:22:27.283Z,99432.25
2023-01-25T06:24:54.073Z,99430.72
2023-01-25T06:27:20.733Z,99431.50
2023-01-25T06:29:47.391Z,99421.41
2023-01-25T06:32:14.270Z,99420.56
2023-01-25T06:34:41.223Z,99403.72
2023-01-25T06:37:11.213Z,99401.16
2023-01-25T06:39:37.985Z,99412.84
2023-01-25T06:42:04.705Z,99380.19
2023-01-25T06:44:31.700Z,99419.78
2023-01-25T06:46:58.491Z,99416.28
2023-01-25T06:49:25.194Z,99408.69
2023-01-25T06:51:51.894Z,99405.38
2023-01-25T06:54:18.858Z,99406.13
2023-01-25T06:56:45.572Z,99403.63
2023-01-25T06:59:12.555Z,99386.66
2023-01-25T07:01:39.414Z,99401.09
2023-01-25T07:04:08.108Z,99402.09
2023-01-25T07:06:34.951Z,99395.34
2023-01-25T07:09:13.433Z,99405.44
2023-01-25T07:11:40.194Z,99398.66
2023-01-25T07:14:07.066Z,99384.28
2023-01-25T07:16:37.215Z,99395.19
2023-01-25T07:19:06.031Z,99390.81
2023-01-25T07:21:33.243Z,99386.63
2023-01-25T07:24:02.635Z,99392.59
2023-01-25T07:26:29.882Z,99398.34
2023-01-25T07:28:58.765Z,99402.72
2023-01-25T07:31:26.581Z,99400.19
2023-01-25T07:33:58.081Z,99390.00
2023-01-25T07:36:26.199Z,99395.91
2023-01-25T07:38:54.970Z,99394.09
2023-01-25T07:41:22.832Z,99401.72
2023-01-25T07:43:51.503Z,99399.16
2023-01-25T07:46:29.451Z,99404.31
2023-01-25T07:48:58.812Z,99396.69
2023-01-25T07:51:30.243Z,99393.19
2023-01-25T07:54:02.390Z,99400.84
2023-01-25T07:56:31.825Z,99396.69
2023-01-25T07:59:00.199Z,99391.53
2023-01-25T08:01:29.189Z,99400.88
2023-01-25T08:03:56.582Z,99395.91
2023-01-25T08:06:35.823Z,99403.47
2023-01-25T08:09:06.574Z,99373.88
2023-01-25T08:11:33.888Z,99378.91
2023-01-25T08:14:02.124Z,99408.44
2023-01-25T08:16:30.706Z,99394.94
2023-01-25T08:18:59.720Z,99399.81
2023-01-25T08:21:30.923Z,99382.88
2023-01-25T08:23:59.655Z,99382.69
2023-01-25T08:26:27.080Z,99394.47
2023-01-25T08:28:54.058Z,99386.84
2023-01-25T08:31:24.388Z,99383.34
2023-01-25T08:33:51.924Z,99379.13
2023-01-25T08:36:19.636Z,99378.31
2023-01-25T08:38:47.766Z,99358.09
2023-01-25T08:41:21.851Z,99380.66
2023-01-25T08:43:48.695Z,99372.25
2023-01-25T08:46:16.721Z,99381.50
2023-01-25T08:48:43.475Z,99371.41
2023-01-25T08:51:13.913Z,99375.50
2023-01-25T08:53:40.913Z,99372.09
2023-01-25T08:56:10.912Z,99374.56
2023-01-25T08:58:40.759Z,99373.59
2023-01-25T09:01:09.691Z,99367.53
2023-01-25T09:03:41.764Z,99357.31
2023-01-25T09:06:09.583Z,99332.84
2023-01-25T09:08:38.017Z,99355.56
2023-01-25T09:11:07.574Z,99353.91
2023-01-25T09:13:34.397Z,99354.72
2023-01-25T09:16:06.797Z,99343.63
2023-01-25T09:18:36.222Z,99344.50
2023-01-25T09:21:17.515Z,99353.91
2023-01-25T09:23:50.922Z,99352.19
2023-01-25T09:26:25.023Z,99347.88
2023-01-25T09:28:53.837Z,99347.03
2023-01-25T09:31:23.800Z,99344.41
2023-01-25T09:34:10.104Z,99346.94
2023-01-25T09:36:37.373Z,99342.72
2023-01-25T09:39:04.498Z,99313.19
2023-01-25T09:42:06.777Z,99343.41
2023-01-25T09:44:40.203Z,99334.81
2023-01-25T09:47:27.135Z,99314.56
2023-01-25T09:50:15.690Z,99334.44
2023-01-25T09:53:06.059Z,99331.88
2023-01-25T09:55:33.422Z,99336.88
2023-01-25T09:58:02.657Z,99323.38
2023-01-25T10:00:50.431Z,99325.91
2023-01-25T10:03:24.687Z,99316.69
2023-01-25T10:05:58.910Z,99326.88
2023-01-25T10:09:03.147Z,99331.22
2023-01-25T10:11:31.976Z,99331.97
2023-01-25T10:13:59.649Z,99327.72
2023-01-25T10:16:50.261Z,99317.31
2023-01-25T10:19:52.309Z,99309.56
2023-01-25T10:22:30.783Z,99312.88
2023-01-25T10:25:13.823Z,99313.69
2023-01-25T10:27:45.685Z,99306.09
2023-01-25T10:30:58.726Z,99298.47
2023-01-25T10:33:28.470Z,99288.38
2023-01-25T10:35:59.958Z,99288.28
2023-01-25T10:38:35.449Z,99283.81
2023-01-25T10:41:12.223Z,99271.16
2023-01-25T10:43:39.268Z,99284.41
2023-01-25T10:46:35.945Z,99285.94
2023-01-25T10:49:37.555Z,99285.72
2023-01-25T10:52:15.098Z,99271.75
2023-01-25T10:54:42.167Z,99277.63
2023-01-25T10:57:14.685Z,99273.28
2023-01-25T10:59:45.908Z,99273.47
2023-01-25T11:02:41.697Z,99271.84
2023-01-25T11:05:30.192Z,99271.72
2023-01-25T11:07:57.955Z,99275.00
2023-01-25T11:10:36.530Z,99248.47
2023-01-25T11:13:15.614Z,99250.94
2023-01-25T11:15:48.581Z,99252.75
2023-01-25T11:18:35.081Z,99242.44
2023-01-25T11:21:23.227Z,99234.19
2023-01-25T11:24:10.133Z,99240.16
2023-01-25T11:26:39.602Z,99235.50
2023-01-25T11:29:19.845Z,99226.50
2023-01-25T11:31:50.134Z,99226.69
2023-01-25T11:34:20.895Z,99216.41
2023-01-25T11:36:59.552Z,99210.81
2023-01-25T11:39:40.357Z,99208.44
2023-01-25T11:42:23.214Z,99215.41
2023-01-25T11:45:19.385Z,99201.88
2023-01-25T11:47:58.404Z,99203.81
2023-01-25T11:50:57.074Z,99180.94
2023-01-25T11:53:42.352Z,99182.91
2023-01-25T11:56:28.334Z,99174.09
2023-01-25T11:59:13.334Z,99171.38
2023-01-25T12:01:52.114Z,99161.47
2023-01-25T12:04:47.046Z,99153.50
2023-01-25T12:07:35.356Z,99146.38
2023-01-25T12:10:29.872Z,99140.94
2023-01-25T12:13:09.233Z,99129.66
2023-01-25T12:15:58.556Z,99120.63
2023-01-25T12:18:50.155Z,99117.69
2023-01-25T12:21:51.971Z,99108.03
2023-01-25T12:24:35.343Z,99107.81
2023-01-25T12:27:12.098Z,99096.75
2023-01-25T12:29:48.274Z,99086.00
2023-01-25T12:32:27.544Z,99094.81
2023-01-25T12:35:20.818Z,99086.91
2023-01-25T12:37:49.941Z,99080.13
2023-01-25T12:40:28.760Z,99049.09
2023-01-25T12:42:59.834Z,99061.50
2023-01-25T12:45:34.357Z,99063.13
2023-01-25T12:48:14.337Z,99058.66
2023-01-25T12:50:52.034Z,99044.97
2023-01-25T12:53:38.436Z,99049.72
2023-01-25T12:56:08.875Z,99034.31
2023-01-25T12:58:43.734Z,99044.41
2023-01-25T13:01:38.174Z,99029.88
2023-01-25T13:04:23.455Z,99038.34
2023-01-25T13:07:07.483Z,99014.19
2023-01-25T13:09:43.302Z,99023.69
2023-01-25T13:12:12.255Z,99005.03
2023-01-25T13:14:40.905Z,99019.06
2023-01-25T13:17:38.102Z,99006.41
2023-01-25T13:20:37.364Z,99011.38
2023-01-25T13:23:04.095Z,99003.78
2023-01-25T13:25:31.008Z,99006.16
2023-01-25T13:28:55.255Z,99006.88
2023-01-25T13:31:51.401Z,99001.88
2023-01-25T13:34:40.447Z,99000.06
2023-01-25T13:37:30.129Z,98999.19
2023-01-25T13:40:37.700Z,98994.97
2023-01-25T13:43:16.876Z,98994.69
2023-01-25T13:45:45.917Z,98990.50
2023-01-25T13:48:22.561Z,98994.56
2023-01-25T13:50:56.017Z,98990.50
2023-01-25T13:53:25.079Z,98985.19
2023-01-25T13:55:56.817Z,98991.81
2023-01-25T13:58:34.357Z,98986.56
2023-01-25T14:01:08.167Z,98984.19
2023-01-25T14:03:43.415Z,98970.03
2023-01-25T14:06:20.599Z,98974.88
2023-01-25T14:08:48.121Z,98973.16
2023-01-25T14:11:29.669Z,98981.69
2023-01-25T14:14:03.808Z,98969.78
2023-01-25T14:16:31.989Z,98978.94
2023-01-25T14:19:31.646Z,98963.44
2023-01-25T14:22:20.040Z,98969.41
2023-01-25T14:25:22.767Z,98961.59
2023-01-25T14:28:02.418Z,98963.22
2023-01-25T14:30:36.428Z,98962.13
2023-01-25T14:33:17.512Z,98937.28
2023-01-25T14:36:11.562Z,98959.16
2023-01-25T14:38:38.340Z,98953.13
2023-01-25T14:41:43.816Z,98960.31
2023-01-25T14:44:16.183Z,98959.47
2023-01-25T14:46:42.971Z,98958.44
2023-01-25T14:49:25.649Z,98948.47
2023-01-25T14:52:14.450Z,98954.22
2023-01-25T14:54:52.404Z,98956.22
2023-01-25T14:57:41.399Z,98953.72
2023-01-25T15:00:21.424Z,98949.41
2023-01-25T15:02:56.629Z,98956.91
2023-01-25T15:05:27.554Z,98949.16
2023-01-25T15:08:13.019Z,98952.56
2023-01-25T15:10:54.243Z,98953.47
2023-01-25T15:13:22.266Z,98951.59
2023-01-25T15:16:00.584Z,98949.88
2023-01-25T15:18:50.982Z,98948.22
2023-01-25T15:21:31.923Z,98951.91
2023-01-25T15:24:06.913Z,98952.84
2023-01-25T15:26:35.696Z,98928.72
2023-01-25T15:29:15.736Z,98949.53
2023-01-25T15:31:42.967Z,98948.81
2023-01-25T15:34:22.102Z,98946.50
2023-01-25T15:36:48.854Z,98947.88
2023-01-25T15:39:17.792Z,98940.50
2023-01-25T15:41:45.013Z,98944.13
2023-01-25T15:44:12.515Z,98948.72
2023-01-25T15:46:45.909Z,98944.72
2023-01-25T15:49:18.781Z,98943.34
2023-01-25T15:51:45.893Z,98941.72
2023-01-25T15:54:12.568Z,98939.47
2023-01-25T15:56:41.871Z,98934.75
2023-01-25T15:59:15.589Z,98939.47
2023-01-25T16:01:42.339Z,98940.53
2023-01-25T16:04:10.309Z,98938.97
2023-01-25T16:06:51.522Z,98935.66
2023-01-25T16:09:22.264Z,98942.59
2023-01-25T16:11:54.455Z,98941.91
2023-01-25T16:14:23.696Z,98945.25
2023-01-25T16:16:52.833Z,98934.22
2023-01-25T16:19:22.130Z,98940.09
2023-01-25T16:21:49.295Z,98940.84
2023-01-25T16:24:16.629Z,98940.72
2023-01-25T16:26:54.338Z,98929.13
2023-01-25T16:29:23.084Z,98932.03
2023-01-25T16:31:50.790Z,98938.91
2023-01-25T16:34:17.767Z,98941.28
2023-01-25T16:36:50.082Z,98935.31
2023-01-25T16:39:21.585Z,98921.97
2023-01-25T16:41:49.219Z,98928.63
2023-01-25T16:44:17.089Z,98927.72
2023-01-25T16:46:44.601Z,98931.78
2023-01-25T16:49:16.429Z,98933.75
2023-01-25T16:51:45.378Z,98935.31
2023-01-25T16:54:12.434Z,98920.97
2023-01-25T16:56:39.287Z,98918.38
2023-01-25T16:59:07.253Z,98916.84
2023-01-25T17:01:34.037Z,98904.38
2023-01-25T17:04:00.696Z,98930.66
2023-01-25T17:06:33.808Z,98935.06
2023-01-25T17:09:12.692Z,98935.28
2023-01-25T17:11:47.910Z,98931.16
2023-01-25T17:14:16.625Z,98908.16
2023-01-25T17:16:45.056Z,98926.59
2023-01-25T17:19:15.079Z,98927.06
2023-01-25T17:21:41.925Z,98923.28
2023-01-25T17:24:08.901Z,98926.47
2023-01-25T17:26:35.773Z,98920.91
2023-01-25T17:29:02.841Z,98922.50
2023-01-25T17:31:33.437Z,98924.38
2023-01-25T17:34:05.568Z,98925.72
2023-01-25T17:36:32.343Z,98910.75
2023-01-25T17:39:06.217Z,98925.16
2023-01-25T17:41:33.316Z,98916.81
2023-01-25T17:43:59.954Z,98919.63
2023-01-25T17:46:30.146Z,98919.41
2023-01-25T17:48:57.471Z,98915.34
2023-01-25T17:51:25.139Z,98915.34
2023-01-25T17:53:52.879Z,98911.06
2023-01-25T17:56:20.332Z,98914.50
2023-01-25T17:58:47.407Z,98915.53
2023-01-25T18:01:19.366Z,98917.81
2023-01-25T18:03:47.960Z,98907.53
2023-01-25T18:06:17.473Z,98911.59
2023-01-25T18:08:48.925Z,98893.78
2023-01-25T18:11:21.230Z,98900.19
2023-01-25T18:13:50.997Z,98896.97
2023-01-25T18:16:21.586Z,98893.63
2023-01-25T18:18:50.661Z,98887.03
2023-01-25T18:21:25.067Z,98883.59
2023-01-25T18:24:05.807Z,98854.50
2023-01-25T18:26:36.986Z,98887.84
2023-01-25T18:29:09.882Z,98893.78
2023-01-25T18:31:37.261Z,98890.75
2023-01-25T18:34:04.980Z,98891.16
2023-01-25T18:36:31.715Z,98888.72
2023-01-25T18:38:59.901Z,98886.91
2023-01-25T18:41:26.652Z,98877.03
2023-01-25T18:43:53.405Z,98876.88
2023-01-25T18:46:20.120Z,98871.84
2023-01-25T18:48:47.281Z,98860.91
2023-01-25T18:51:17.464Z,98877.66
2023-01-25T18:53:47.275Z,98876.94
2023-01-25T18:56:19.430Z,98872.91
2023-01-25T18:58:46.922Z,98860.06
2023-01-25T19:01:19.639Z,98873.44
2023-01-25T19:03:47.685Z,98865.06
2023-01-25T19:06:15.049Z,98855.25
2023-01-25T19:08:44.259Z,98862.38
2023-01-25T19:11:13.562Z,98867.13
2023-01-25T19:13:41.877Z,98865.53
2023-01-25T19:16:17.670Z,98859.56
2023-01-25T19:18:47.001Z,98847.09
2023-01-25T19:21:16.633Z,98853.09
2023-01-25T19:23:43.811Z,98839.25
2023-01-25T19:26:16.192Z,98846.75
2023-01-25T19:28:43.656Z,98844.78
2023-01-25T19:31:16.039Z,98844.97
2023-01-25T19:33:43.887Z,98846.63
2023-01-25T19:36:18.240Z,98830.88
2023-01-25T19:38:46.476Z,98839.50
2023-01-25T19:41:17.958Z,98829.38
2023-01-25T19:43:44.896Z,98824.22
2023-01-25T19:46:17.059Z,98820.72
2023-01-25T19:48:47.148Z,98826.78
2023-01-25T19:51:18.677Z,98820.91
2023-01-25T19:53:47.592Z,98818.41
2023-01-25T19:56:17.221Z,98814.97
2023-01-25T19:58:45.904Z,98823.72
2023-01-25T20:01:15.143Z,98818.13
2023-01-25T20:03:42.482Z,98813.81
2023-01-25T20:06:13.127Z,98815.50
2023-01-25T20:08:42.351Z,98816.44
2023-01-25T20:11:15.341Z,98816.47
2023-01-25T20:13:42.959Z,98802.97
2023-01-25T20:16:11.455Z,98805.72
2023-01-25T20:18:38.984Z,98802.09
2023-01-25T20:21:07.850Z,98790.28
2023-01-25T20:23:37.488Z,98791.16
2023-01-25T20:26:11.031Z,98796.41
2023-01-25T20:28:37.785Z,98778.59
2023-01-25T20:31:04.713Z,98787.09
2023-01-25T20:33:32.171Z,98788.13
2023-01-25T20:36:03.675Z,98787.47
2023-01-25T20:38:34.470Z,98786.34
2023-01-25T20:41:05.971Z,98782.81
2023-01-25T20:43:33.249Z,98778.78
2023-01-25T20:46:01.031Z,98782.09
2023-01-25T20:48:29.280Z,98776.44
2023-01-25T20:51:04.756Z,98779.16
2023-01-25T20:53:31.568Z,98775.66
2023-01-25T20:55:58.531Z,98775.03
2023-01-25T20:58:26.389Z,98775.72
2023-01-25T21:00:53.745Z,98770.75
2023-01-25T21:03:21.570Z,98772.19
2023-01-25T21:05:56.595Z,98767.84
2023-01-25T21:08:24.356Z,98768.88
2023-01-25T21:10:53.536Z,98764.81
2023-01-25T21:13:21.164Z,98762.31
2023-01-25T21:16:14.626Z,98762.25
2023-01-25T21:18:42.707Z,98769.81
2023-01-25T21:21:14.689Z,98749.53
2023-01-25T21:23:44.911Z,98760.50
2023-01-25T21:26:15.891Z,98728.09
2023-01-25T21:28:43.093Z,98759.13
2023-01-25T21:31:13.033Z,98750.59
2023-01-25T21:33:40.441Z,98748.78
2023-01-25T21:36:14.294Z,98752.41
2023-01-25T21:38:42.892Z,98742.22
2023-01-25T21:41:21.473Z,98742.97
2023-01-25T21:44:07.473Z,98742.31
2023-01-25T21:46:34.960Z,98744.28
2023-01-25T21:49:23.047Z,98731.53
2023-01-25T21:51:52.716Z,98712.09
2023-01-25T21:54:26.504Z,98722.47
2023-01-25T21:56:56.071Z,98741.22
2023-01-25T21:59:23.346Z,98724.94
2023-01-25T22:01:51.047Z,98720.81
2023-01-25T22:04:19.319Z,98718.50
2023-01-25T22:06:48.683Z,98717.03
2023-01-25T22:09:15.654Z,98707.81
2023-01-25T22:11:45.872Z,98696.75
2023-01-25T22:14:13.955Z,98708.38
2023-01-25T22:16:40.745Z,98698.41
2023-01-25T22:19:08.012Z,98697.34
2023-01-25T22:21:34.732Z,98691.31
2023-01-25T22:24:03.422Z,98679.75
2023-01-25T22:26:39.282Z,98686.34
2023-01-25T22:29:06.123Z,98680.66
2023-01-25T22:31:33.036Z,98686.72
2023-01-25T22:34:00.536Z,98687.50
2023-01-25T22:36:29.056Z,98680.78
2023-01-25T22:38:56.343Z,98687.38
2023-01-25T22:41:29.068Z,98682.28
2023-01-25T22:43:55.904Z,98689.63
2023-01-25T22:46:25.599Z,98643.59
2023-01-25T22:48:52.722Z,98679.47
2023-01-25T22:51:24.506Z,98660.78
2023-01-25T22:53:52.273Z,98659.44
2023-01-25T22:56:21.117Z,98661.53
2023-01-25T22:58:47.872Z,98663.84
2023-01-25T23:01:21.522Z,98645.59
2023-01-25T23:03:49.265Z,98649.63
2023-01-25T23:06:19.033Z,98644.47
2023-01-25T23:08:46.558Z,98648.69
2023-01-25T23:11:15.469Z,98641.03
2023-01-25T23:14:03.270Z,98638.31
2023-01-25T23:16:30.583Z,98630.91
2023-01-25T23:18:57.961Z,98623.16
2023-01-25T23:21:27.755Z,98631.84
2023-01-25T23:24:02.224Z,98626.69
2023-01-25T23:26:37.561Z,98627.09
2023-01-25T23:29:09.624Z,98616.19
2023-01-25T23:31:37.162Z,98627.09
2023-01-25T23:34:06.239Z,98606.06
2023-01-25T23:36:35.984Z,98610.94
2023-01-25T23:39:03.135Z,98609.41
2023-01-25T23:41:31.635Z,98613.84
2023-01-25T23:43:59.698Z,98607.69
2023-01-25T23:46:28.194Z,98616.97
2023-01-25T23:48:55.190Z,98593.16
2023-01-25T23:51:22.088Z,98605.69
2023-01-25T23:53:48.778Z,98598.84
2023-01-25T23:56:21.328Z,98599.47
2023-01-25T23:58:49.000Z,98598.56
